createdAt,value
2023-01-06T00:01:51.815Z,3.59
2023-01-06T00:05:27.808Z,3.54
2023-01-06T00:09:03.798Z,3.55
2023-01-06T00:12:39.824Z,3.54
2023-01-06T00:16:19.821Z,3.47
2023-01-06T00:19:55.771Z,3.61
2023-01-06T00:23:31.799Z,3.51
2023-01-06T00:27:07.792Z,3.54
2023-01-06T00:30:43.875Z,3.42
2023-01-06T00:34:19.803Z,3.30
2023-01-06T00:37:55.811Z,3.45
2023-01-06T00:41:49.770Z,3.52
2023-01-06T00:45:25.753Z,3.75
2023-01-06T00:49:06.337Z,2.83
2023-01-06T00:52:42.771Z,2.48
2023-01-06T00:56:18.806Z,3.21
2023-01-06T00:59:54.824Z,3.55
2023-01-06T01:03:30.752Z,3.68
2023-01-06T01:07:06.763Z,3.90
2023-01-06T01:10:42.764Z,3.92
2023-01-06T01:14:18.797Z,3.97
2023-01-06T01:17:54.778Z,3.97
2023-01-06T01:21:30.739Z,4.02
2023-01-06T01:24:59.749Z,4.18
2023-01-06T01:28:35.759Z,4.13
2023-01-06T01:32:11.761Z,4.24
2023-01-06T01:35:47.777Z,4.30
2023-01-06T01:39:23.780Z,4.27
2023-01-06T01:42:59.781Z,4.22
2023-01-06T01:46:44.800Z,4.18
2023-01-06T01:50:23.767Z,4.50
2023-01-06T01:54:00.768Z,4.58
2023-01-06T01:57:40.733Z,4.75
2023-01-06T02:01:16.831Z,4.74
2023-01-06T02:04:53.758Z,4.86
2023-01-06T02:08:52.764Z,4.86
2023-01-06T02:12:21.827Z,4.98
2023-01-06T02:15:51.758Z,5.04
2023-01-06T02:19:36.717Z,5.18
2023-01-06T02:23:30.674Z,5.02
2023-01-06T02:27:21.762Z,5.25
2023-01-06T02:30:57.757Z,5.33
2023-01-06T02:34:33.676Z,5.16
2023-01-06T02:38:13.726Z,5.12
2023-01-06T02:41:55.717Z,4.94
2023-01-06T02:45:43.772Z,4.94
2023-01-06T02:49:20.684Z,5.15
2023-01-06T02:52:57.673Z,5.17
2023-01-06T02:56:34.710Z,5.19
2023-01-06T03:00:13.695Z,5.00
2023-01-06T03:03:49.703Z,4.84
2023-01-06T03:07:27.729Z,4.90
2023-01-06T03:10:57.803Z,4.75
2023-01-06T03:14:29.698Z,4.69
2023-01-06T03:18:05.717Z,4.78
2023-01-06T03:21:42.689Z,4.55
2023-01-06T03:25:21.672Z,4.65
2023-01-06T03:28:58.651Z,4.67
2023-01-06T03:32:41.688Z,4.83
2023-01-06T03:36:20.697Z,4.75
2023-01-06T03:39:59.642Z,4.86
2023-01-06T03:43:54.699Z,4.98
2023-01-06T03:47:59.644Z,5.05
2023-01-06T03:51:55.833Z,4.93
2023-01-06T03:55:31.666Z,4.55
2023-01-06T03:59:08.694Z,4.54
2023-01-06T04:02:44.706Z,4.60
2023-01-06T04:06:24.670Z,4.51
2023-01-06T04:10:02.667Z,4.44
2023-01-06T04:13:38.650Z,4.41
2023-01-06T04:17:14.626Z,4.35
2023-01-06T04:20:50.643Z,4.46
2023-01-06T04:24:29.718Z,4.40
2023-01-06T04:28:05.657Z,4.26
2023-01-06T04:31:41.722Z,4.20
2023-01-06T04:35:17.666Z,4.02
2023-01-06T04:38:53.628Z,4.18
2023-01-06T04:42:29.677Z,4.15
2023-01-06T04:46:05.675Z,4.10
2023-01-06T04:49:41.637Z,4.10
2023-01-06T04:53:17.652Z,3.81
2023-01-06T04:56:53.690Z,3.76
2023-01-06T05:00:29.628Z,3.53
2023-01-06T05:04:05.698Z,3.82
2023-01-06T05:07:41.625Z,4.09
2023-01-06T05:11:19.630Z,3.93
2023-01-06T05:14:55.615Z,4.13
2023-01-06T05:18:31.659Z,4.10
2023-01-06T05:22:07.616Z,3.70
2023-01-06T05:25:43.610Z,3.83
2023-01-06T05:29:19.640Z,3.92
2023-01-06T05:32:55.607Z,3.67
2023-01-06T05:36:31.642Z,3.83
2023-01-06T05:40:07.676Z,3.79
2023-01-06T05:43:43.603Z,3.95
2023-01-06T05:47:19.627Z,3.67
2023-01-06T05:50:55.657Z,3.50
2023-01-06T05:54:31.609Z,3.29
2023-01-06T05:58:07.569Z,3.43
2023-01-06T06:01:43.647Z,3.41
2023-01-06T06:05:19.583Z,3.38
2023-01-06T06:08:55.569Z,3.12
2023-01-06T06:12:31.618Z,2.79
2023-01-06T06:16:16.626Z,2.83
2023-01-06T06:19:45.600Z,2.66
2023-01-06T06:23:21.576Z,2.85
2023-01-06T06:26:57.611Z,3.44
2023-01-06T06:30:26.571Z,3.41
2023-01-06T06:34:08.594Z,3.36
2023-01-06T06:37:44.546Z,3.52
2023-01-06T06:41:20.585Z,3.70
2023-01-06T06:44:56.614Z,4.04
2023-01-06T06:48:32.613Z,4.27
2023-01-06T06:52:08.577Z,4.38
2023-01-06T06:55:44.542Z,4.43
2023-01-06T06:59:20.603Z,4.70
2023-01-06T07:02:56.544Z,4.72
2023-01-06T07:06:32.572Z,4.86
2023-01-06T07:10:08.570Z,5.01
2023-01-06T07:13:44.584Z,5.19
2023-01-06T07:17:20.566Z,5.12
2023-01-06T07:21:00.519Z,5.18
2023-01-06T07:24:36.581Z,5.08
2023-01-06T07:28:13.559Z,5.36
2023-01-06T07:31:49.572Z,5.35
2023-01-06T07:35:25.475Z,5.66
2023-01-06T07:39:01.523Z,5.46
2023-01-06T07:42:37.542Z,5.44
2023-01-06T07:46:13.606Z,5.53
2023-01-06T07:49:49.520Z,5.62
2023-01-06T07:53:25.554Z,5.71
2023-01-06T07:57:01.530Z,5.81
2023-01-06T08:00:37.559Z,6.14
2023-01-06T08:04:13.560Z,6.08
2023-01-06T08:07:49.536Z,6.11
2023-01-06T08:11:26.532Z,6.22
2023-01-06T08:15:02.520Z,6.36
2023-01-06T08:18:38.539Z,6.47
2023-01-06T08:22:14.476Z,6.42
2023-01-06T08:25:50.555Z,6.52
2023-01-06T08:29:26.524Z,6.60
2023-01-06T08:33:02.487Z,6.63
2023-01-06T08:38:02.085Z,6.79
2023-01-06T08:41:24.076Z,6.95
2023-01-06T08:44:46.105Z,6.85
2023-01-06T08:48:08.107Z,6.91
2023-01-06T08:51:31.095Z,6.99
2023-01-06T08:54:53.067Z,7.01
2023-01-06T08:58:15.135Z,7.28
2023-01-06T09:01:40.300Z,7.27
2023-01-06T09:05:02.169Z,7.32
2023-01-06T09:08:24.064Z,7.60
2023-01-06T09:11:39.179Z,7.75
2023-01-06T09:15:01.085Z,7.77
2023-01-06T09:18:23.105Z,7.62
2023-01-06T09:21:45.112Z,7.50
2023-01-06T09:25:00.193Z,7.48
2023-01-06T09:28:22.122Z,7.56
2023-01-06T09:31:37.194Z,7.67
2023-01-06T09:34:59.061Z,7.44
2023-01-06T09:38:21.056Z,7.53
2023-01-06T09:41:54.756Z,7.59
2023-01-06T09:45:20.087Z,7.37
2023-01-06T09:48:37.135Z,7.39
2023-01-06T09:51:52.138Z,7.36
2023-01-06T09:55:17.104Z,7.48
2023-01-06T09:58:42.025Z,7.63
2023-01-06T10:02:06.188Z,7.44
2023-01-06T10:05:29.054Z,7.53
2023-01-06T10:08:47.136Z,7.48
2023-01-06T10:12:09.047Z,7.33
2023-01-06T10:15:31.087Z,7.51
2023-01-06T10:18:53.275Z,7.58
2023-01-06T10:22:23.024Z,7.57
2023-01-06T10:25:47.060Z,7.74
2023-01-06T10:29:10.092Z,7.88
2023-01-06T10:32:32.057Z,7.72
2023-01-06T10:35:54.028Z,7.73
2023-01-06T10:39:26.051Z,7.66
2023-01-06T10:43:04.187Z,7.58
2023-01-06T10:46:19.318Z,7.63
2023-01-06T10:49:41.052Z,7.71
2023-01-06T10:53:03.060Z,7.71
2023-01-06T10:56:25.048Z,7.80
2023-01-06T11:00:07.037Z,8.00
2023-01-06T11:03:33.818Z,7.79
2023-01-06T11:06:50.718Z,7.78
2023-01-06T11:10:12.016Z,7.96
2023-01-06T11:13:28.907Z,8.01
2023-01-06T11:16:50.988Z,8.06
2023-01-06T11:20:29.047Z,8.13
2023-01-06T11:23:44.240Z,8.14
2023-01-06T11:27:07.021Z,8.30
2023-01-06T11:30:35.957Z,8.32
2023-01-06T11:34:07.012Z,8.64
2023-01-06T11:37:28.998Z,8.87
2023-01-06T11:40:51.014Z,9.30
2023-01-06T11:44:31.966Z,8.82
2023-01-06T11:47:54.972Z,8.49
2023-01-06T11:51:17.957Z,8.81
2023-01-06T11:54:33.220Z,8.57
2023-01-06T11:57:54.957Z,8.28
2023-01-06T12:01:35.044Z,8.52
2023-01-06T12:04:51.111Z,8.14
2023-01-06T12:08:23.946Z,7.91
2023-01-06T12:11:48.164Z,8.12
2023-01-06T12:15:11.031Z,8.23
2023-01-06T12:18:34.041Z,7.96
2023-01-06T12:21:49.187Z,8.07
2023-01-06T12:25:10.947Z,8.24
2023-01-06T12:28:31.380Z,8.22
2023-01-06T12:32:00.957Z,7.99
2023-01-06T12:35:24.960Z,8.02
2023-01-06T12:38:54.987Z,7.89
2023-01-06T12:42:29.980Z,7.84
2023-01-06T12:46:12.065Z,7.98
2023-01-06T12:49:56.940Z,7.58
2023-01-06T12:53:20.794Z,7.63
2023-01-06T12:56:46.000Z,7.42
2023-01-06T13:00:13.978Z,7.54
2023-01-06T13:03:38.945Z,7.65
2023-01-06T13:07:06.051Z,7.61
2023-01-06T13:10:27.964Z,7.34
2023-01-06T13:13:52.963Z,7.36
2023-01-06T13:17:17.998Z,7.20
2023-01-06T13:20:40.073Z,7.21
2023-01-06T13:24:10.995Z,7.34
2023-01-06T13:27:29.089Z,7.36
2023-01-06T13:31:00.000Z,7.29
2023-01-06T13:34:21.031Z,7.01
2023-01-06T13:37:46.909Z,7.12
2023-01-06T13:41:10.949Z,7.18
2023-01-06T13:44:27.676Z,6.93
2023-01-06T13:47:48.912Z,7.01
2023-01-06T13:51:07.752Z,6.85
2023-01-06T13:54:47.916Z,6.78
2023-01-06T13:58:27.947Z,6.59
2023-01-06T14:01:50.047Z,6.60
2023-01-06T14:05:21.127Z,6.66
2023-01-06T14:08:46.914Z,6.64
2023-01-06T14:12:20.943Z,6.47
2023-01-06T14:15:55.291Z,6.30
2023-01-06T14:19:22.882Z,6.32
2023-01-06T14:22:38.057Z,6.13
2023-01-06T14:25:59.944Z,6.13
2023-01-06T14:29:34.096Z,6.04
2023-01-06T14:32:55.912Z,6.19
2023-01-06T14:36:23.945Z,6.04
2023-01-06T14:39:46.891Z,6.00
2023-01-06T14:43:04.992Z,5.96
2023-01-06T14:46:33.018Z,5.98
2023-01-06T14:50:04.035Z,5.80
2023-01-06T14:53:27.877Z,5.98
2023-01-06T14:56:49.917Z,5.94
2023-01-06T15:00:24.265Z,5.81
2023-01-06T15:03:45.927Z,5.68
2023-01-06T15:07:24.904Z,5.50
2023-01-06T15:10:51.864Z,5.65
2023-01-06T15:14:23.084Z,5.17
2023-01-06T15:17:44.883Z,5.18
2023-01-06T15:21:00.136Z,5.39
2023-01-06T15:24:37.917Z,5.46
2023-01-06T15:27:55.349Z,5.47
2023-01-06T15:31:16.892Z,5.55
2023-01-06T15:34:41.854Z,5.64
2023-01-06T15:38:05.890Z,5.30
2023-01-06T15:41:39.885Z,5.34
2023-01-06T15:45:27.875Z,5.25
2023-01-06T15:48:53.842Z,4.99
2023-01-06T15:52:18.837Z,4.88
2023-01-06T15:55:41.848Z,4.69
2023-01-06T15:59:03.849Z,4.68
2023-01-06T16:02:19.919Z,4.64
2023-01-06T16:05:57.580Z,4.55
2023-01-06T16:09:28.826Z,4.48
2023-01-06T16:12:50.849Z,4.33
2023-01-06T16:16:13.865Z,4.25
2023-01-06T16:19:35.881Z,4.50
2023-01-06T16:23:01.833Z,4.51
2023-01-06T16:26:23.915Z,3.91
2023-01-06T16:29:45.828Z,3.92
2023-01-06T16:33:10.832Z,3.96
2023-01-06T16:36:25.994Z,4.05
2023-01-06T16:39:47.877Z,3.75
2023-01-06T16:43:03.040Z,3.83
2023-01-06T16:46:31.913Z,3.41
2023-01-06T16:49:53.913Z,3.57
2023-01-06T16:53:33.560Z,3.72
2023-01-06T16:56:56.787Z,3.79
2023-01-06T17:00:18.816Z,3.75
2023-01-06T17:03:35.193Z,3.68
2023-01-06T17:06:56.779Z,3.45
2023-01-06T17:10:36.821Z,3.04
2023-01-06T17:14:08.838Z,3.22
2023-01-06T17:17:30.832Z,3.13
2023-01-06T17:20:52.810Z,2.79
2023-01-06T17:24:07.986Z,2.61
2023-01-06T17:27:33.795Z,2.46
2023-01-06T17:30:55.961Z,2.61
2023-01-06T17:34:25.227Z,2.37
2023-01-06T17:37:40.049Z,2.11
2023-01-06T17:41:02.825Z,2.37
2023-01-06T17:44:18.651Z,2.52
2023-01-06T17:47:45.790Z,2.65
2023-01-06T17:51:01.043Z,2.51
2023-01-06T17:54:50.781Z,2.48
2023-01-06T17:58:09.103Z,2.18
2023-01-06T18:01:36.898Z,1.92
2023-01-06T18:04:58.773Z,1.96
2023-01-06T18:08:14.216Z,2.02
2023-01-06T18:11:36.799Z,1.82
2023-01-06T18:14:58.742Z,2.06
2023-01-06T18:18:30.799Z,3.25
2023-01-06T18:21:52.743Z,2.18
2023-01-06T18:25:09.492Z,2.13
2023-01-06T18:28:30.756Z,2.26
2023-01-06T18:31:52.860Z,2.03
2023-01-06T18:35:08.952Z,2.05
2023-01-06T18:38:33.715Z,2.48
2023-01-06T18:41:48.845Z,2.34
2023-01-06T18:45:19.763Z,2.04
2023-01-06T18:48:34.837Z,2.25
2023-01-06T18:51:56.731Z,2.20
2023-01-06T18:55:36.759Z,2.06
2023-01-06T18:58:58.738Z,2.04
2023-01-06T19:02:17.905Z,1.98
2023-01-06T19:05:39.673Z,2.06
2023-01-06T19:09:02.775Z,2.03
2023-01-06T19:12:20.999Z,2.13
2023-01-06T19:15:42.761Z,2.14
2023-01-06T19:19:05.746Z,2.24
2023-01-06T19:22:30.731Z,1.72
2023-01-06T19:25:56.726Z,0.99
2023-01-06T19:29:12.797Z,1.45
2023-01-06T19:32:34.753Z,1.56
2023-01-06T19:35:49.870Z,1.66
2023-01-06T19:39:20.691Z,1.64
2023-01-06T19:42:42.769Z,1.66
2023-01-06T19:45:57.987Z,1.70
2023-01-06T19:49:39.700Z,1.67
2023-01-06T19:53:01.735Z,1.64
2023-01-06T19:56:21.757Z,1.43
2023-01-06T19:59:46.746Z,1.44
2023-01-06T20:03:03.401Z,1.64
2023-01-06T20:06:25.727Z,1.77
2023-01-06T20:09:40.950Z,1.56
2023-01-06T20:13:02.757Z,1.65
2023-01-06T20:16:18.087Z,1.76
2023-01-06T20:19:39.727Z,1.65
2023-01-06T20:23:01.696Z,1.36
2023-01-06T20:26:16.803Z,1.24
2023-01-06T20:29:38.669Z,1.28
2023-01-06T20:33:00.714Z,1.27
2023-01-06T20:36:17.270Z,1.16
2023-01-06T20:39:38.682Z,1.08
2023-01-06T20:43:00.665Z,0.81
2023-01-06T20:46:15.756Z,0.59
2023-01-06T20:49:37.657Z,0.57
2023-01-06T20:52:59.711Z,0.57
2023-01-06T20:56:21.675Z,0.86
2023-01-06T20:59:43.664Z,0.72
2023-01-06T21:02:58.815Z,0.63
2023-01-06T21:06:20.696Z,0.65
2023-01-06T21:09:42.644Z,0.73
2023-01-06T21:12:58.670Z,0.83
2023-01-06T21:16:20.639Z,0.82
2023-01-06T21:19:42.708Z,0.73
2023-01-06T21:22:57.778Z,0.37
2023-01-06T21:26:19.706Z,0.39
2023-01-06T21:29:35.007Z,0.26
2023-01-06T21:32:56.637Z,0.14
2023-01-06T21:36:18.644Z,0.14
2023-01-06T21:39:33.888Z,0.22
2023-01-06T21:43:13.646Z,0.15
2023-01-06T21:46:28.899Z,-0.11
2023-01-06T21:49:52.656Z,-0.02
2023-01-06T21:53:14.688Z,-0.29
2023-01-06T21:56:29.703Z,-0.07
2023-01-06T21:59:51.598Z,-0.07
2023-01-06T22:03:13.666Z,-0.02
2023-01-06T22:06:29.957Z,-0.87
2023-01-06T22:09:52.591Z,-0.20
2023-01-06T22:13:14.709Z,-0.23
2023-01-06T22:16:29.748Z,-0.35
2023-01-06T22:19:52.653Z,-0.51
2023-01-06T22:23:07.750Z,-0.20
2023-01-06T22:26:29.641Z,-0.38
2023-01-06T22:29:51.622Z,-0.42
2023-01-06T22:33:13.681Z,-0.28
2023-01-06T22:36:28.764Z,-0.13
2023-01-06T22:39:51.591Z,-0.12
2023-01-06T22:43:13.638Z,-0.03
2023-01-06T22:46:35.628Z,-0.42
2023-01-06T22:49:50.717Z,-0.10
2023-01-06T22:53:12.587Z,-0.65
2023-01-06T22:56:27.717Z,-0.38
2023-01-06T22:59:49.551Z,-0.42
2023-01-06T23:03:11.605Z,-0.19
2023-01-06T23:06:26.793Z,-0.56
2023-01-06T23:09:48.616Z,-0.30
2023-01-06T23:13:10.593Z,-0.20
2023-01-06T23:16:26.785Z,-0.26
2023-01-06T23:19:48.557Z,-0.22
2023-01-06T23:23:10.528Z,-0.35
2023-01-06T23:26:40.629Z,-0.34
2023-01-06T23:29:55.661Z,-0.43
2023-01-06T23:33:17.553Z,-0.36
2023-01-06T23:36:40.555Z,-0.42
2023-01-06T23:40:02.581Z,-0.30
2023-01-06T23:43:26.783Z,-0.32
2023-01-06T23:46:42.066Z,-0.29
2023-01-06T23:50:03.555Z,-0.35
2023-01-06T23:53:18.795Z,-0.33
2023-01-06T23:56:40.587Z,-0.52
